Time;durP1;ratioP1;P1;durP2;ratioP2;P2;SDS_P1;SDS_P2;PMS_P1;PMS_P2;Temp;Humidity;BMP_temperature;BMP_pressure;BME280_temperature;BME280_humidity;BME280_pressure;Samples;Min_cycle;Max_cycle;Signal;HPM_P1;HPM_P2
2022/01/19 00:01:26;;;;;;;58.97;12.57;;;;;;;3.60;100.00;103274.84;5101413;28;20104;-75
2022/01/19 00:03:52;;;;;;;71.80;12.80;;;;;;;3.63;100.00;103277.22;5102953;28;20030;-74
2022/01/19 00:06:17;;;;;;;75.22;12.68;;;;;;;3.56;100.00;103283.50;5081298;28;20028;-75
2022/01/19 00:08:43;;;;;;;73.10;12.30;;;;;;;3.42;100.00;103275.09;5095232;28;20479;-75
2022/01/19 00:11:08;;;;;;;77.18;13.80;;;;;;;3.31;100.00;103265.47;5081469;28;20502;-75
2022/01/19 00:13:34;;;;;;;80.40;11.90;;;;;;;3.42;100.00;103271.53;5083315;28;20032;-74
2022/01/19 00:16:00;;;;;;;138.30;16.02;;;;;;;3.15;100.00;103264.66;5094970;28;20423;-75
2022/01/19 00:18:26;;;;;;;139.95;14.90;;;;;;;2.81;100.00;103268.44;5088573;28;20084;-74
2022/01/19 00:20:54;;;;;;;120.22;12.52;;;;;;;3.11;100.00;103272.28;5075865;28;20481;-75
2022/01/19 00:23:20;;;;;;;86.00;11.82;;;;;;;3.08;100.00;103264.50;5092292;28;20034;-75
2022/01/19 00:25:47;;;;;;;53.03;9.70;;;;;;;3.20;100.00;103257.72;5074140;28;20035;-74
2022/01/19 00:28:13;;;;;;;44.88;10.40;;;;;;;3.31;100.00;103256.47;5097675;28;20052;-76
2022/01/19 00:30:40;;;;;;;46.95;10.48;;;;;;;3.23;100.00;103253.78;5092455;28;20025;-76
2022/01/19 00:33:05;;;;;;;50.63;10.82;;;;;;;3.11;100.00;103248.72;5065261;28;20028;-76
2022/01/19 00:35:31;;;;;;;53.70;11.73;;;;;;;3.12;100.00;103239.59;5080315;28;20020;-76
2022/01/19 00:37:56;;;;;;;64.80;11.68;;;;;;;3.10;100.00;103219.97;5076414;28;20032;-76
2022/01/19 00:40:22;;;;;;;59.13;11.98;;;;;;;3.08;100.00;103204.88;5082129;28;20085;-75
2022/01/19 00:42:49;;;;;;;72.35;12.30;;;;;;;3.11;100.00;103182.84;5061962;28;20560;-75
2022/01/19 00:45:15;;;;;;;76.28;12.38;;;;;;;3.17;100.00;103178.59;5080629;28;20069;-75
2022/01/19 00:47:42;;;;;;;43.05;12.55;;;;;;;3.11;100.00;103174.72;5081829;28;20035;-76
2022/01/19 00:50:11;;;;;;;47.78;12.05;;;;;;;3.06;100.00;103166.25;5085138;28;20071;-76
2022/01/19 00:52:36;;;;;;;72.10;12.18;;;;;;;2.99;100.00;103157.16;5080508;28;20024;-75
2022/01/19 00:55:07;;;;;;;68.80;11.77;;;;;;;2.88;100.00;103159.19;5086582;28;20105;-76
2022/01/19 00:57:32;;;;;;;43.88;10.68;;;;;;;2.98;100.00;103169.84;5083868;28;20043;-75
2022/01/19 00:59:57;;;;;;;60.72;12.38;;;;;;;2.83;100.00;103164.28;5106021;28;20032;-75
2022/01/19 01:02:23;;;;;;;50.03;11.05;;;;;;;2.89;100.00;103171.72;5100644;28;20027;-76
2022/01/19 01:04:48;;;;;;;53.30;12.48;;;;;;;2.87;100.00;103165.66;5085989;28;20284;-75
2022/01/19 01:07:14;;;;;;;51.10;10.88;;;;;;;2.81;100.00;103168.22;5081148;28;20517;-76
2022/01/19 01:09:39;;;;;;;55.10;10.50;;;;;;;2.83;100.00;103174.28;5083815;28;20101;-76
2022/01/19 01:12:21;;;;;;;38.78;11.07;;;;;;;2.79;100.00;103154.84;5097936;28;20508;-75
2022/01/19 01:20:17;;;;;;;36.25;11.60;;;;;;;2.77;100.00;103124.34;5107119;28;20061;-76
2022/01/19 01:22:42;;;;;;;56.60;11.35;;;;;;;2.81;100.00;103122.16;5079157;28;20028;-76
2022/01/19 01:25:09;;;;;;;56.38;11.20;;;;;;;2.83;100.00;103101.97;5085077;28;20031;-76
2022/01/19 01:27:34;;;;;;;50.40;11.45;;;;;;;2.70;100.00;103094.41;5084425;28;20123;-74
2022/01/19 01:30:00;;;;;;;23.50;10.05;;;;;;;2.79;100.00;103099.78;5078359;28;20122;-75
2022/01/19 01:32:26;;;;;;;48.58;11.85;;;;;;;2.72;100.00;103095.09;5107055;28;20496;-76
2022/01/19 01:34:52;;;;;;;37.97;10.15;;;;;;;2.79;100.00;103086.25;5066014;28;20432;-75
2022/01/19 01:37:19;;;;;;;30.58;10.73;;;;;;;2.70;100.00;103085.44;5082863;28;20031;-76
2022/01/19 01:39:44;;;;;;;46.22;10.98;;;;;;;2.69;100.00;103072.91;5085581;28;20035;-76
2022/01/19 01:42:16;;;;;;;57.22;11.15;;;;;;;2.65;100.00;103050.75;5095630;28;20448;-75
2022/01/19 01:44:45;;;;;;;63.38;13.18;;;;;;;2.63;100.00;103033.00;5104803;28;20507;-75
2022/01/19 01:47:12;;;;;;;38.45;10.65;;;;;;;2.58;100.00;103030.81;5104855;28;20085;-76
2022/01/19 01:55:07;;;;;;;47.63;11.50;;;;;;;2.44;100.00;103055.91;5085239;28;20047;-76
2022/01/19 01:57:34;;;;;;;43.13;11.98;;;;;;;2.18;100.00;103074.06;5083888;28;20092;-76
2022/01/19 01:59:59;;;;;;;51.83;12.18;;;;;;;1.88;100.00;103074.75;5085561;28;20038;-75
2022/01/19 02:02:25;;;;;;;30.42;11.43;;;;;;;2.27;100.00;103074.03;5090358;28;20479;-75
2022/01/19 02:04:51;;;;;;;25.40;11.55;;;;;;;2.16;100.00;103075.22;5093920;28;20024;-75
2022/01/19 02:10:00;;;;;;;21.42;11.20;;;;;;;2.50;100.00;103077.72;5094292;28;20039;-75
2022/01/19 02:23:33;;;;;;;15.98;10.32;;;;;;;2.41;100.00;103019.19;5091550;28;20575;-76
2022/01/19 02:26:05;;;;;;;13.30;9.95;;;;;;;2.38;100.00;103006.84;5086909;28;20159;-76
2022/01/19 02:31:36;;;;;;;14.52;10.85;;;;;;;2.20;100.00;103007.06;5083414;28;20039;-75
2022/01/19 02:42:16;;;;;;;14.65;10.00;;;;;;;2.25;100.00;102962.38;5086029;28;20126;-75
2022/01/19 02:49:52;;;;;;;12.70;9.48;;;;;;;2.16;100.00;102923.69;5072245;28;20104;-75
2022/01/19 02:52:19;;;;;;;14.85;10.15;;;;;;;2.10;100.00;102921.66;5100806;28;20039;-75
2022/01/19 02:54:45;;;;;;;12.00;9.02;;;;;;;1.87;100.00;102916.16;5100476;28;20040;-75
2022/01/19 02:57:12;;;;;;;12.27;9.68;;;;;;;2.01;100.00;102901.91;5093882;28;20027;-75
2022/01/19 03:06:16;;;;;;;13.52;9.80;;;;;;;2.06;100.00;102894.13;5087420;28;20019;-74
2022/01/19 03:10:43;;;;;;;16.75;11.15;;;;;;;2.05;100.00;102884.34;5098812;28;20034;-76
2022/01/19 03:13:09;;;;;;;13.45;10.23;;;;;;;2.15;100.00;102884.13;5085267;28;20138;-75
2022/01/19 03:15:34;;;;;;;21.48;12.95;;;;;;;2.05;100.00;102884.34;5091047;28;20036;-76
2022/01/19 03:18:01;;;;;;;21.48;12.77;;;;;;;1.84;100.00;102885.75;5093499;28;20034;-76
2022/01/19 03:20:28;;;;;;;21.35;12.45;;;;;;;2.18;100.00;102889.16;5096185;28;20063;-75
2022/01/19 03:23:10;;;;;;;22.13;13.55;;;;;;;2.35;100.00;102879.94;5087759;28;20023;-76
2022/01/19 03:25:38;;;;;;;18.95;12.60;;;;;;;2.32;100.00;102876.75;5100473;28;20016;-75
2022/01/19 03:28:05;;;;;;;23.73;12.73;;;;;;;2.31;100.00;102877.78;5089522;28;20142;-76
2022/01/19 03:30:31;;;;;;;26.00;15.63;;;;;;;2.46;100.00;102889.56;5083430;28;20028;-76
2022/01/19 03:32:56;;;;;;;26.15;15.10;;;;;;;2.72;100.00;102885.66;5095555;28;20038;-75
2022/01/19 03:35:22;;;;;;;30.67;16.67;;;;;;;2.80;100.00;102893.72;5099931;28;20403;-76
2022/01/19 03:37:47;;;;;;;34.30;18.13;;;;;;;2.57;100.00;102897.28;5090463;28;20023;-75
2022/01/19 03:40:13;;;;;;;33.10;17.13;;;;;;;2.83;100.00;102903.38;5083191;28;20042;-76
2022/01/19 03:42:39;;;;;;;29.92;17.33;;;;;;;3.07;100.00;102896.94;5100272;28;20416;-76
2022/01/19 03:45:06;;;;;;;35.63;18.00;;;;;;;2.83;100.00;102906.09;5092371;28;20023;-76
2022/01/19 03:47:39;;;;;;;35.75;19.15;;;;;;;3.09;100.00;102903.00;5087482;28;20126;-76
2022/01/19 03:50:06;;;;;;;32.55;18.23;;;;;;;3.30;100.00;102883.34;5073256;28;20502;-76
2022/01/19 03:52:31;;;;;;;32.75;18.48;;;;;;;3.43;100.00;102890.88;5087933;28;20108;-76
2022/01/19 03:54:56;;;;;;;29.40;16.70;;;;;;;3.49;100.00;102879.25;5077718;28;20446;-74
2022/01/19 03:57:22;;;;;;;33.75;18.52;;;;;;;3.48;100.00;102869.47;5085632;28;20056;-75
2022/01/19 03:59:47;;;;;;;32.35;18.30;;;;;;;3.51;100.00;102874.50;5085529;28;20470;-75
2022/01/19 04:02:13;;;;;;;27.35;16.95;;;;;;;3.23;100.00;102866.97;5084842;28;20119;-75
2022/01/19 04:04:47;;;;;;;34.95;18.95;;;;;;;3.35;100.00;102866.53;5086213;28;20120;-76
2022/01/19 04:07:14;;;;;;;32.50;17.63;;;;;;;3.60;100.00;102867.13;5047918;28;20062;-75
2022/01/19 04:09:42;;;;;;;29.42;18.55;;;;;;;3.64;100.00;102857.56;5063384;28;20367;-75
2022/01/19 04:12:13;;;;;;;37.83;20.63;;;;;;;3.67;100.00;102860.78;5089563;28;20142;-75
2022/01/19 04:14:39;;;;;;;37.72;20.67;;;;;;;3.71;100.00;102861.25;5092430;28;20032;-75
2022/01/19 04:17:07;;;;;;;35.08;19.05;;;;;;;3.84;100.00;102855.16;5094222;28;20035;-76
2022/01/19 04:19:53;;;;;;;33.47;19.55;;;;;;;3.93;100.00;102850.47;5089769;28;20031;-75
2022/01/19 04:22:20;;;;;;;40.10;21.13;;;;;;;3.83;100.00;102843.44;5090711;28;20117;-76
2022/01/19 04:24:49;;;;;;;37.20;20.88;;;;;;;3.97;100.00;102841.78;5102374;28;20023;-75
2022/01/19 04:30:10;;;;;;;37.85;20.25;;;;;;;4.16;100.00;102834.88;5090157;28;20125;-76
2022/01/19 04:33:02;;;;;;;41.15;21.70;;;;;;;4.19;100.00;102828.25;5085761;28;20114;-76
2022/01/19 04:35:30;;;;;;;46.65;21.60;;;;;;;4.19;100.00;102811.97;5101473;28;20028;-75
2022/01/19 04:47:01;;;;;;;45.90;21.85;;;;;;;4.33;100.00;102789.38;5088929;28;20172;-75
2022/01/19 04:54:39;;;;;;;39.83;22.50;;;;;;;4.35;100.00;102786.47;5096612;28;20092;-76
2022/01/19 05:05:10;;;;;;;42.50;22.23;;;;;;;4.55;100.00;102773.91;5088467;28;20028;-75
2022/01/19 05:07:57;;;;;;;53.35;25.88;;;;;;;4.57;100.00;102771.00;5070680;28;20079;-76
2022/01/19 05:13:32;;;;;;;53.53;23.80;;;;;;;4.63;100.00;102769.38;5095764;28;20036;-76
2022/01/19 05:15:57;;;;;;;44.50;22.98;;;;;;;4.65;100.00;102761.88;5084258;28;20034;-76
2022/01/19 05:18:23;;;;;;;46.00;23.70;;;;;;;4.70;100.00;102768.38;5086535;28;20032;-76
2022/01/19 05:20:57;;;;;;;49.50;24.40;;;;;;;4.74;100.00;102763.44;5092148;28;20122;-75
2022/01/19 05:23:23;;;;;;;46.53;23.83;;;;;;;4.75;100.00;102757.78;5085521;28;20032;-76
2022/01/19 05:25:48;;;;;;;42.28;22.77;;;;;;;4.73;100.00;102757.13;5069222;28;20034;-75
2022/01/19 05:28:14;;;;;;;51.45;25.10;;;;;;;4.72;100.00;102751.91;5084899;28;20269;-76
2022/01/19 05:30:40;;;;;;;50.92;25.63;;;;;;;4.78;100.00;102753.84;5087193;28;20085;-76
2022/01/19 05:33:05;;;;;;;59.05;27.75;;;;;;;4.83;100.00;102745.94;5088675;28;20146;-76
2022/01/19 05:35:30;;;;;;;42.30;23.27;;;;;;;4.91;100.00;102739.50;5100489;28;20059;-75
2022/01/19 05:37:57;;;;;;;43.50;23.67;;;;;;;4.94;100.00;102728.25;5083815;28;20085;-75
2022/01/19 05:40:22;;;;;;;59.92;27.65;;;;;;;4.97;100.00;102727.84;5050884;28;20032;-76
2022/01/19 05:42:49;;;;;;;53.10;25.77;;;;;;;4.96;100.00;102718.00;5084756;28;20098;-76
2022/01/19 05:45:15;;;;;;;55.45;27.98;;;;;;;4.95;100.00;102721.75;5102478;28;20056;-77
2022/01/19 05:47:41;;;;;;;55.97;28.83;;;;;;;4.96;100.00;102712.56;5100037;27;20051;-76
2022/01/19 05:50:06;;;;;;;57.45;27.88;;;;;;;5.07;100.00;102711.19;5098302;28;20123;-77
2022/01/19 05:52:32;;;;;;;55.58;27.55;;;;;;;5.10;100.00;102697.19;5063369;28;20063;-76
2022/01/19 05:55:01;;;;;;;51.03;27.25;;;;;;;5.10;100.00;102697.19;5083591;28;20055;-76
2022/01/19 05:57:26;;;;;;;59.90;30.92;;;;;;;5.13;100.00;102692.19;5084738;28;20032;-75
2022/01/19 05:59:51;;;;;;;62.80;29.70;;;;;;;5.24;100.00;102684.50;5096910;28;20066;-76
2022/01/19 06:02:20;;;;;;;54.13;28.38;;;;;;;5.21;100.00;102680.31;5083950;28;20044;-77
2022/01/19 06:04:46;;;;;;;63.78;32.13;;;;;;;5.31;100.00;102666.34;5084470;28;20028;-76
2022/01/19 06:07:12;;;;;;;66.25;32.38;;;;;;;5.31;100.00;102664.47;5095811;28;20084;-76
2022/01/19 06:12:17;;;;;;;62.17;30.80;;;;;;;5.39;100.00;102673.50;5095067;28;20461;-76
2022/01/19 06:14:44;;;;;;;54.00;28.83;;;;;;;5.42;100.00;102660.31;5081474;28;20036;-76
2022/01/19 06:17:12;;;;;;;67.93;34.17;;;;;;;5.45;100.00;102659.09;5102788;28;20108;-76
2022/01/19 06:19:41;;;;;;;58.58;30.65;;;;;;;5.44;100.00;102646.50;5090942;28;20500;-76
2022/01/19 06:22:09;;;;;;;57.85;30.63;;;;;;;5.47;100.00;102640.66;5076847;28;20478;-77
2022/01/19 06:24:42;;;;;;;59.00;30.00;;;;;;;5.48;100.00;102640.47;5096345;28;20023;-78
2022/01/19 06:27:15;;;;;;;59.33;30.20;;;;;;;5.52;100.00;102632.72;5094244;28;20062;-76
2022/01/19 06:29:40;;;;;;;65.55;32.97;;;;;;;5.52;100.00;102622.69;5084526;28;20265;-75
2022/01/19 06:32:06;;;;;;;62.03;32.42;;;;;;;5.55;100.00;102621.44;5082504;28;20100;-75
2022/01/19 06:34:32;;;;;;;68.47;32.88;;;;;;;5.59;100.00;102628.16;5084686;28;20035;-76
2022/01/19 06:36:59;;;;;;;62.28;32.70;;;;;;;5.61;100.00;102625.25;5102177;28;20042;-75
2022/01/19 06:39:25;;;;;;;75.60;34.58;;;;;;;5.56;100.00;102614.97;5098703;28;20044;-75
2022/01/19 06:41:51;;;;;;;69.72;34.22;;;;;;;5.57;100.00;102613.06;5095644;28;20396;-75
2022/01/19 06:44:20;;;;;;;69.57;36.10;;;;;;;5.51;100.00;102615.56;5098953;28;20054;-77
2022/01/19 06:46:46;;;;;;;66.70;34.55;;;;;;;5.60;100.00;102610.78;5065261;28;20052;-76
2022/01/19 06:49:11;;;;;;;62.80;34.53;;;;;;;5.63;100.00;102604.09;5069938;28;20027;-75
2022/01/19 06:51:37;;;;;;;65.22;35.17;;;;;;;5.63;100.00;102598.66;5099151;28;20543;-75
2022/01/19 06:54:29;;;;;;;71.00;36.13;;;;;;;5.59;100.00;102597.38;5090073;28;20035;-74
2022/01/19 06:56:54;;;;;;;73.30;37.20;;;;;;;5.67;100.00;102600.78;5083598;28;20054;-74
2022/01/19 06:59:21;;;;;;;77.32;37.90;;;;;;;5.68;100.00;102579.81;5092628;28;20383;-75
2022/01/19 07:01:46;;;;;;;72.10;37.50;;;;;;;5.73;100.00;102590.09;5103774;28;20030;-75
2022/01/19 07:04:15;;;;;;;71.10;38.88;;;;;;;5.63;100.00;102587.78;5081063;28;20032;-75
2022/01/19 07:06:40;;;;;;;68.85;38.13;;;;;;;5.45;100.00;102589.19;5077227;28;20454;-74
2022/01/19 07:09:07;;;;;;;69.15;38.90;;;;;;;5.39;100.00;102590.00;5068325;28;20088;-74
2022/01/19 07:11:32;;;;;;;75.65;38.42;;;;;;;5.50;100.00;102577.69;5103883;28;20020;-74
2022/01/19 07:14:08;;;;;;;75.60;38.78;;;;;;;5.53;100.00;102574.56;5095420;28;20035;-75
2022/01/19 07:16:34;;;;;;;71.68;39.45;;;;;;;5.68;100.00;102575.22;5066207;28;20081;-74
2022/01/19 07:18:59;;;;;;;70.93;40.33;;;;;;;5.73;100.00;102579.22;5092262;28;20039;-74
2022/01/19 07:21:25;;;;;;;79.03;40.53;;;;;;;5.80;100.00;102577.31;5098163;28;20219;-76
2022/01/19 07:23:51;;;;;;;64.35;36.78;;;;;;;5.86;100.00;102580.06;5069372;28;20019;-74
2022/01/19 07:26:16;;;;;;;77.13;42.08;;;;;;;5.85;100.00;102586.56;5066143;28;20043;-75
2022/01/19 07:28:41;;;;;;;69.03;39.53;;;;;;;5.68;100.00;102577.94;5086303;28;20092;-76
2022/01/19 07:31:10;;;;;;;70.57;41.60;;;;;;;5.81;100.00;102576.28;5075629;28;20108;-74
2022/01/19 07:33:36;;;;;;;69.03;42.55;;;;;;;5.75;100.00;102572.50;5081945;28;20020;-75
2022/01/19 07:36:06;;;;;;;67.72;39.65;;;;;;;5.75;100.00;102567.06;5079097;28;20447;-75
2022/01/19 07:38:32;;;;;;;61.08;37.92;;;;;;;5.90;100.00;102572.31;5075637;28;20131;-75
2022/01/19 07:40:57;;;;;;;58.53;37.00;;;;;;;5.96;100.00;102559.75;5085538;28;20126;-74
2022/01/19 07:43:23;;;;;;;55.47;36.33;;;;;;;5.98;100.00;102560.41;5062821;28;20020;-74
2022/01/19 07:45:48;;;;;;;51.65;36.28;;;;;;;6.13;100.00;102552.84;5064327;28;20443;-74
2022/01/19 07:48:14;;;;;;;52.35;34.08;;;;;;;6.16;100.00;102549.72;5079392;28;20081;-75
2022/01/19 07:50:39;;;;;;;52.63;33.83;;;;;;;6.11;100.00;102537.78;5074534;28;20338;-74
2022/01/19 07:53:06;;;;;;;52.47;34.75;;;;;;;6.18;100.00;102534.03;5098575;28;20028;-76
2022/01/19 07:55:32;;;;;;;47.47;31.55;;;;;;;6.27;100.00;102533.81;5082644;28;20035;-74
2022/01/19 07:57:58;;;;;;;53.55;31.42;;;;;;;6.18;100.00;102531.31;5086168;28;20023;-76
2022/01/19 08:00:23;;;;;;;56.63;36.25;;;;;;;6.21;100.00;102528.13;5086225;28;20024;-75
2022/01/19 08:02:51;;;;;;;59.72;37.70;;;;;;;6.23;100.00;102534.22;5071566;28;20039;-74
2022/01/19 08:05:17;;;;;;;60.58;36.70;;;;;;;6.16;100.00;102535.28;5067118;28;20055;-74
2022/01/19 08:07:43;;;;;;;55.00;35.03;;;;;;;6.22;100.00;102526.25;5080275;28;20104;-75
2022/01/19 08:10:11;;;;;;;56.28;37.00;;;;;;;6.26;100.00;102513.88;5084809;28;20062;-75
2022/01/19 08:12:37;;;;;;;56.75;36.97;;;;;;;6.32;100.00;102512.22;5083626;28;20051;-75
2022/01/19 08:15:04;;;;;;;58.55;36.78;;;;;;;6.28;100.00;102513.66;5086191;28;20067;-74
2022/01/19 08:17:30;;;;;;;56.92;35.20;;;;;;;6.18;100.00;102504.06;5084315;28;20027;-75
2022/01/19 08:19:56;;;;;;;56.90;35.40;;;;;;;6.35;100.00;102498.16;5086079;28;20035;-75
2022/01/19 08:22:23;;;;;;;58.92;35.92;;;;;;;6.40;100.00;102504.63;5079271;28;20031;-75
2022/01/19 08:24:48;;;;;;;58.88;36.15;;;;;;;6.35;100.00;102507.16;5086169;28;20053;-74
2022/01/19 08:27:15;;;;;;;61.42;37.60;;;;;;;6.38;100.00;102498.56;5086479;28;20086;-74
2022/01/19 08:29:41;;;;;;;57.05;35.33;;;;;;;6.39;100.00;102502.13;5105384;28;20051;-75
2022/01/19 08:32:07;;;;;;;55.08;34.20;;;;;;;6.42;100.00;102496.25;5104221;28;20031;-75
2022/01/19 08:34:33;;;;;;;56.08;33.58;;;;;;;6.45;100.00;102493.09;5087229;28;20240;-75
2022/01/19 08:37:00;;;;;;;58.72;36.17;;;;;;;6.38;100.00;102495.03;5103249;28;20096;-74
2022/01/19 08:39:25;;;;;;;54.75;33.35;;;;;;;6.35;100.00;102484.53;5104292;28;20042;-75
2022/01/19 08:41:52;;;;;;;50.03;32.10;;;;;;;6.36;100.00;102491.66;5107809;28;20028;-74
2022/01/19 08:44:18;;;;;;;53.40;33.22;;;;;;;6.22;100.00;102486.22;5097365;28;20088;-73
2022/01/19 08:46:44;;;;;;;51.83;31.17;;;;;;;6.38;100.00;102473.22;5088891;28;20024;-75
2022/01/19 08:49:10;;;;;;;49.00;31.80;;;;;;;6.43;100.00;102470.69;5106806;28;20036;-75
2022/01/19 08:51:36;;;;;;;50.50;31.42;;;;;;;6.32;100.00;102466.72;5098055;28;20036;-75
2022/01/19 08:54:02;;;;;;;51.72;31.35;;;;;;;6.40;100.00;102460.22;5092766;28;20035;-74
2022/01/19 08:56:27;;;;;;;50.75;30.55;;;;;;;6.42;100.00;102463.56;5091354;28;20055;-76
2022/01/19 08:58:53;;;;;;;46.15;29.15;;;;;;;6.55;100.00;102460.78;5086177;28;20038;-75
2022/01/19 09:01:19;;;;;;;44.72;27.92;;;;;;;6.45;100.00;102452.22;5102490;28;20039;-75
2022/01/19 09:03:45;;;;;;;45.92;29.00;;;;;;;6.54;100.00;102444.66;5073048;28;20451;-75
2022/01/19 09:06:10;;;;;;;42.42;27.85;;;;;;;6.45;100.00;102452.22;5072696;28;20217;-75
2022/01/19 09:08:36;;;;;;;51.80;28.67;;;;;;;6.61;100.00;102456.38;5076341;28;20419;-76
2022/01/19 09:11:03;;;;;;;45.00;29.13;;;;;;;6.71;100.00;102453.19;5090814;28;20112;-75
2022/01/19 09:13:28;;;;;;;51.58;31.38;;;;;;;6.75;100.00;102438.88;5092651;28;20306;-74
2022/01/19 09:15:55;;;;;;;58.45;33.20;;;;;;;6.53;100.00;102430.19;5061622;28;20406;-74
2022/01/19 09:18:21;;;;;;;48.42;32.17;;;;;;;6.48;100.00;102426.44;5062494;28;20032;-73
2022/01/19 09:21:07;;;;;;;53.15;33.25;;;;;;;6.37;100.00;102412.44;5079594;28;20050;-74
2022/01/19 09:23:35;;;;;;;53.42;33.20;;;;;;;6.55;100.00;102410.91;5094448;28;20016;-74
2022/01/19 09:26:01;;;;;;;43.78;28.73;;;;;;;6.28;100.00;102416.47;5096249;28;20023;-74
2022/01/19 09:28:27;;;;;;;47.33;31.77;;;;;;;6.42;100.00;102411.78;5081933;28;20123;-74
2022/01/19 09:30:53;;;;;;;42.28;28.70;;;;;;;6.50;100.00;102400.66;5063794;28;20036;-75
2022/01/19 09:33:20;;;;;;;39.63;26.02;;;;;;;6.42;100.00;102390.81;5088926;28;20390;-73
2022/01/19 09:36:29;;;;;;;44.60;29.23;;;;;;;6.58;100.00;102399.56;5084275;28;20031;-73
2022/01/19 09:38:40;;;;;;;41.17;27.80;;;;;;;6.44;100.00;102406.94;5099688;28;20354;-75
2022/01/19 09:41:07;;;;;;;42.00;26.63;;;;;;;6.63;100.00;102421.56;5100880;28;20030;-73
2022/01/19 09:43:33;;;;;;;34.33;23.92;;;;;;;6.70;100.00;102422.34;5086347;28;20031;-73
2022/01/19 09:46:03;;;;;;;34.28;23.77;;;;;;;6.71;100.00;102424.03;5100548;28;20015;-74
2022/01/19 09:48:29;;;;;;;39.15;25.90;;;;;;;6.82;100.00;102414.31;5089495;28;20497;-73
2022/01/19 09:50:56;;;;;;;35.40;22.20;;;;;;;6.70;100.00;102425.06;5079476;28;20106;-72
2022/01/19 09:53:24;;;;;;;32.70;19.95;;;;;;;6.70;100.00;102419.63;5078710;28;20035;-73
2022/01/19 09:55:50;;;;;;;29.48;16.73;;;;;;;6.71;100.00;102428.66;5081598;28;20122;-73
2022/01/19 09:58:18;;;;;;;29.55;17.85;;;;;;;6.81;100.00;102432.56;5088071;28;20024;-74
2022/01/19 10:00:46;;;;;;;27.80;16.00;;;;;;;6.58;100.00;102419.47;5082274;28;20436;-72
2022/01/19 10:03:18;;;;;;;25.40;16.13;;;;;;;6.84;100.00;102420.41;5066110;28;20032;-72
2022/01/19 10:06:09;;;;;;;25.65;14.85;;;;;;;7.01;100.00;102420.72;5080986;28;20618;-72
2022/01/19 10:08:38;;;;;;;22.55;12.60;;;;;;;6.85;100.00;102413.88;5083194;28;20023;-72
2022/01/19 10:17:08;;;;;;;15.52;9.70;;;;;;;7.07;100.00;102403.47;5083389;28;20039;-73
2022/01/19 10:19:43;;;;;;;18.35;10.75;;;;;;;7.05;100.00;102423.84;5083464;28;20130;-73
2022/01/19 10:22:10;;;;;;;20.02;8.75;;;;;;;7.02;100.00;102418.81;5078642;28;20024;-72
2022/01/19 10:24:52;;;;;;;17.40;9.10;;;;;;;7.13;100.00;102412.66;5082839;28;20031;-73
2022/01/19 10:27:35;;;;;;;17.05;7.65;;;;;;;6.84;100.00;102403.19;5083017;28;20127;-74
2022/01/19 10:30:04;;;;;;;13.20;5.95;;;;;;;6.96;100.00;102405.00;5083556;28;20403;-73
2022/01/19 10:32:40;;;;;;;15.90;6.40;;;;;;;6.84;100.00;102403.19;5082812;28;20028;-72
2022/01/19 10:35:27;;;;;;;12.00;4.82;;;;;;;6.98;100.00;102378.38;5083828;28;20085;-74
2022/01/19 10:38:14;;;;;;;11.43;5.03;;;;;;;7.15;100.00;102375.94;5080362;28;20031;-74
2022/01/19 10:40:43;;;;;;;10.32;4.30;;;;;;;7.29;100.00;102359.47;5082953;28;20152;-73
2022/01/19 10:43:42;;;;;;;11.60;4.57;;;;;;;7.26;100.00;102360.72;5082897;28;20042;-72
2022/01/19 10:46:30;;;;;;;9.60;4.18;;;;;;;7.41;100.00;102349.50;5071591;28;20063;-73
2022/01/19 10:49:02;;;;;;;12.32;4.50;;;;;;;7.39;100.00;102345.31;5081255;28;20171;-74
2022/01/19 10:51:37;;;;;;;10.18;4.28;;;;;;;7.21;100.00;102344.19;5077081;28;20381;-74
2022/01/19 10:54:15;;;;;;;12.32;4.68;;;;;;;7.03;100.00;102347.69;5082540;28;20028;-74
2022/01/19 10:56:43;;;;;;;11.05;4.40;;;;;;;7.18;100.00;102350.09;5078421;28;20104;-74
2022/01/19 10:59:14;;;;;;;10.65;3.78;;;;;;;7.29;100.00;102343.09;5082522;28;20032;-73
2022/01/19 11:01:51;;;;;;;9.52;3.83;;;;;;;7.40;100.00;102336.06;5081561;28;20024;-75
2022/01/19 11:04:33;;;;;;;8.68;4.00;;;;;;;7.58;100.00;102327.91;5086089;28;20027;-74
2022/01/19 11:07:03;;;;;;;9.05;3.03;;;;;;;7.64;100.00;102329.75;5084892;28;20023;-75
2022/01/19 11:09:32;;;;;;;6.03;3.28;;;;;;;7.72;100.00;102324.00;5101677;28;20115;-75
2022/01/19 11:12:06;;;;;;;12.13;3.25;;;;;;;7.57;100.00;102323.50;5101386;28;20024;-73
2022/01/19 11:14:35;;;;;;;10.90;3.10;;;;;;;7.74;100.00;102310.13;5100916;28;20032;-71
2022/01/19 11:17:01;;;;;;;9.18;2.90;;;;;;;7.86;100.00;102299.25;5101539;28;20031;-74
2022/01/19 11:19:39;;;;;;;11.43;3.60;;;;;;;7.60;100.00;102300.41;5102875;28;20028;-73
2022/01/19 11:22:41;;;;;;;9.88;3.25;;;;;;;7.87;100.00;102292.72;5098133;28;20031;-73
2022/01/19 11:25:37;;;;;;;10.32;2.92;;;;;;;7.88;100.00;102286.22;5102499;28;20016;-74
2022/01/19 11:28:02;;;;;;;11.57;3.70;;;;;;;7.93;100.00;102277.34;5101072;28;20082;-74
2022/01/19 11:30:34;;;;;;;14.15;4.13;;;;;;;7.77;100.00;102267.84;5102290;28;20066;-73
2022/01/19 11:33:10;;;;;;;12.05;3.42;;;;;;;7.96;100.00;102253.13;5101859;28;20024;-74
2022/01/19 11:35:38;;;;;;;10.35;3.33;;;;;;;7.94;100.00;102255.25;5100945;28;20035;-74
2022/01/19 11:38:39;;;;;;;10.63;3.70;;;;;;;7.79;100.00;102255.66;5096775;28;20100;-73
2022/01/19 11:41:07;;;;;;;12.07;3.42;;;;;;;8.02;100.00;102256.84;5079105;28;20527;-73
2022/01/19 11:43:47;;;;;;;13.30;3.40;;;;;;;8.01;100.00;102250.53;5080409;28;20111;-74
2022/01/19 11:46:49;;;;;;;12.38;4.03;;;;;;;7.57;100.00;102238.91;5083638;28;20028;-73
2022/01/19 11:49:35;;;;;;;14.52;4.80;;;;;;;7.62;100.00;102225.41;5068732;28;20101;-74
2022/01/19 11:52:01;;;;;;;40.20;22.88;;;;;;;7.50;100.00;102214.41;5079450;28;20035;-74
2022/01/19 11:54:37;;;;;;;12.88;5.63;;;;;;;7.59;100.00;102214.97;5079717;28;20048;-74
2022/01/19 11:57:16;;;;;;;9.60;3.58;;;;;;;7.63;100.00;102201.69;5082047;28;20027;-73
2022/01/19 11:59:48;;;;;;;12.65;3.90;;;;;;;7.58;100.00;102210.56;5079594;28;20024;-74
2022/01/19 12:02:32;;;;;;;14.13;4.45;;;;;;;7.57;100.00;102205.31;5079350;28;20496;-74
2022/01/19 12:04:58;;;;;;;10.88;3.83;;;;;;;7.48;100.00;102196.63;5079855;28;20031;-74
2022/01/19 12:07:44;;;;;;;14.23;3.70;;;;;;;7.65;100.00;102202.28;5082897;28;20134;-73
2022/01/19 12:10:21;;;;;;;15.20;4.50;;;;;;;7.52;100.00;102195.09;5101118;28;20024;-74
2022/01/19 12:16:06;;;;;;;14.65;4.53;;;;;;;7.61;100.00;102191.00;5097423;28;20547;-74
2022/01/19 12:18:46;;;;;;;13.40;4.30;;;;;;;7.36;100.00;102201.97;5083516;28;20027;-73
2022/01/19 12:21:34;;;;;;;14.23;4.50;;;;;;;7.46;100.00;102185.94;5083668;28;20039;-74
2022/01/19 12:24:16;;;;;;;10.27;3.70;;;;;;;7.39;100.00;102173.41;5087044;28;20508;-72
2022/01/19 12:27:02;;;;;;;18.42;4.32;;;;;;;7.55;100.00;102170.06;5098733;28;20026;-73
2022/01/19 12:29:38;;;;;;;15.88;4.72;;;;;;;7.61;100.00;102160.97;5102340;28;20040;-74
2022/01/19 12:32:09;;;;;;;12.68;4.60;;;;;;;7.78;100.00;102154.88;5100499;28;20035;-74
2022/01/19 12:35:07;;;;;;;21.58;7.80;;;;;;;7.59;100.00;102138.53;5103905;28;20032;-73
2022/01/19 12:37:32;;;;;;;19.23;6.93;;;;;;;7.67;100.00;102135.50;5094095;28;20039;-75
2022/01/19 12:40:00;;;;;;;19.00;5.88;;;;;;;7.54;100.00;102131.03;5097896;28;20031;-78
2022/01/19 12:42:31;;;;;;;16.23;6.13;;;;;;;7.85;100.00;102117.38;5084546;28;20039;-75
2022/01/19 12:44:59;;;;;;;19.40;5.78;;;;;;;7.70;100.00;102129.53;5090361;28;20430;-75
2022/01/19 12:47:25;;;;;;;22.70;6.90;;;;;;;7.82;100.00;102123.28;5085015;28;20513;-75
2022/01/19 12:50:18;;;;;;;18.70;6.05;;;;;;;7.59;100.00;102130.34;5092160;28;20032;-75
2022/01/19 12:52:46;;;;;;;28.50;9.43;;;;;;;7.83;100.00;102124.97;5087477;28;20480;-76